sensor_id;sensor_type;location;lat;lon;timestamp;P1;durP1;ratioP1;P2;durP2;ratioP2
16878;SDS011;8556;52.218;9.884;2023-12-04T00:00:04;24.87;;;12.20;;
16878;SDS011;8556;52.218;9.884;2023-12-04T00:02:32;21.87;;;12.00;;
16878;SDS011;8556;52.218;9.884;2023-12-04T00:05:01;24.77;;;11.30;;
16878;SDS011;8556;52.218;9.884;2023-12-04T00:07:28;24.17;;;12.40;;
16878;SDS011;8556;52.218;9.884;2023-12-04T00:09:55;22.10;;;11.67;;
16878;SDS011;8556;52.218;9.884;2023-12-04T00:12:22;24.00;;;12.97;;
16878;SDS011;8556;52.218;9.884;2023-12-04T00:14:49;22.30;;;11.37;;
16878;SDS011;8556;52.218;9.884;2023-12-04T00:17:16;24.93;;;12.57;;
16878;SDS011;8556;52.218;9.884;2023-12-04T00:19:43;23.43;;;12.23;;
16878;SDS011;8556;52.218;9.884;2023-12-04T00:22:11;21.37;;;10.97;;
16878;SDS011;8556;52.218;9.884;2023-12-04T00:24:38;22.60;;;12.03;;
16878;SDS011;8556;52.218;9.884;2023-12-04T00:27:05;24.03;;;11.43;;
16878;SDS011;8556;52.218;9.884;2023-12-04T00:29:32;20.80;;;10.73;;
16878;SDS011;8556;52.218;9.884;2023-12-04T00:31:59;21.13;;;10.70;;
16878;SDS011;8556;52.218;9.884;2023-12-04T00:34:25;21.67;;;8.97;;
16878;SDS011;8556;52.218;9.884;2023-12-04T00:36:52;19.97;;;10.17;;
16878;SDS011;8556;52.218;9.884;2023-12-04T00:39:20;19.00;;;10.03;;
16878;SDS011;8556;52.218;9.884;2023-12-04T00:41:50;18.57;;;9.47;;
16878;SDS011;8556;52.218;9.884;2023-12-04T00:44:16;17.03;;;7.43;;
16878;SDS011;8556;52.218;9.884;2023-12-04T00:46:43;21.13;;;10.43;;
16878;SDS011;8556;52.218;9.884;2023-12-04T00:49:10;19.77;;;9.90;;
16878;SDS011;8556;52.218;9.884;2023-12-04T00:51:37;19.77;;;10.43;;
16878;SDS011;8556;52.218;9.884;2023-12-04T00:54:04;18.97;;;9.80;;
16878;SDS011;8556;52.218;9.884;2023-12-04T00:56:32;24.27;;;10.97;;
16878;SDS011;8556;52.218;9.884;2023-12-04T00:58:59;18.93;;;9.33;;
16878;SDS011;8556;52.218;9.884;2023-12-04T01:01:26;22.67;;;10.83;;
16878;SDS011;8556;52.218;9.884;2023-12-04T01:03:53;22.90;;;10.53;;
16878;SDS011;8556;52.218;9.884;2023-12-04T01:06:20;23.17;;;10.97;;
16878;SDS011;8556;52.218;9.884;2023-12-04T01:08:48;21.77;;;11.27;;
16878;SDS011;8556;52.218;9.884;2023-12-04T01:11:15;21.00;;;10.20;;
16878;SDS011;8556;52.218;9.884;2023-12-04T01:13:44;22.90;;;10.70;;
16878;SDS011;8556;52.218;9.884;2023-12-04T01:16:11;17.97;;;8.83;;
16878;SDS011;8556;52.218;9.884;2023-12-04T01:18:37;20.70;;;10.70;;
16878;SDS011;8556;52.218;9.884;2023-12-04T01:21:04;18.60;;;8.87;;
16878;SDS011;8556;52.218;9.884;2023-12-04T01:23:33;20.07;;;9.33;;
16878;SDS011;8556;52.218;9.884;2023-12-04T01:26:01;22.43;;;10.93;;
16878;SDS011;8556;52.218;9.884;2023-12-04T01:28:28;20.27;;;11.57;;
16878;SDS011;8556;52.218;9.884;2023-12-04T01:30:56;19.73;;;10.13;;
16878;SDS011;8556;52.218;9.884;2023-12-04T01:33:23;20.27;;;9.17;;
16878;SDS011;8556;52.218;9.884;2023-12-04T01:35:49;21.27;;;10.70;;
16878;SDS011;8556;52.218;9.884;2023-12-04T01:38:17;23.00;;;12.00;;
16878;SDS011;8556;52.218;9.884;2023-12-04T01:40:44;18.50;;;10.17;;
16878;SDS011;8556;52.218;9.884;2023-12-04T01:43:11;19.70;;;9.80;;
16878;SDS011;8556;52.218;9.884;2023-12-04T01:45:37;21.23;;;10.40;;
16878;SDS011;8556;52.218;9.884;2023-12-04T01:48:06;18.80;;;9.63;;
16878;SDS011;8556;52.218;9.884;2023-12-04T01:50:33;20.63;;;9.97;;
16878;SDS011;8556;52.218;9.884;2023-12-04T01:53:01;19.30;;;9.40;;
16878;SDS011;8556;52.218;9.884;2023-12-04T01:55:28;20.37;;;9.63;;
16878;SDS011;8556;52.218;9.884;2023-12-04T01:57:56;20.10;;;9.00;;
16878;SDS011;8556;52.218;9.884;2023-12-04T02:00:24;20.30;;;10.53;;
16878;SDS011;8556;52.218;9.884;2023-12-04T02:02:51;19.07;;;9.93;;
16878;SDS011;8556;52.218;9.884;2023-12-04T02:05:20;20.17;;;9.07;;
16878;SDS011;8556;52.218;9.884;2023-12-04T02:07:48;20.47;;;10.00;;
16878;SDS011;8556;52.218;9.884;2023-12-04T02:10:15;22.47;;;11.23;;
16878;SDS011;8556;52.218;9.884;2023-12-04T02:12:42;19.70;;;11.20;;
16878;SDS011;8556;52.218;9.884;2023-12-04T02:15:09;21.93;;;11.23;;
16878;SDS011;8556;52.218;9.884;2023-12-04T02:17:36;22.90;;;10.83;;
16878;SDS011;8556;52.218;9.884;2023-12-04T02:20:04;22.17;;;10.13;;
16878;SDS011;8556;52.218;9.884;2023-12-04T02:22:34;24.33;;;12.53;;
16878;SDS011;8556;52.218;9.884;2023-12-04T02:25:02;21.60;;;11.60;;
16878;SDS011;8556;52.218;9.884;2023-12-04T02:27:32;21.60;;;10.43;;
16878;SDS011;8556;52.218;9.884;2023-12-04T02:30:05;25.17;;;12.83;;
16878;SDS011;8556;52.218;9.884;2023-12-04T02:32:35;21.73;;;9.90;;
16878;SDS011;8556;52.218;9.884;2023-12-04T02:35:05;22.93;;;10.90;;
16878;SDS011;8556;52.218;9.884;2023-12-04T02:37:34;22.53;;;10.80;;
16878;SDS011;8556;52.218;9.884;2023-12-04T02:40:03;21.47;;;10.20;;
16878;SDS011;8556;52.218;9.884;2023-12-04T02:42:31;19.87;;;9.00;;
16878;SDS011;8556;52.218;9.884;2023-12-04T02:44:58;20.33;;;10.37;;
16878;SDS011;8556;52.218;9.884;2023-12-04T02:47:25;20.87;;;10.03;;
16878;SDS011;8556;52.218;9.884;2023-12-04T02:49:52;21.20;;;10.80;;
16878;SDS011;8556;52.218;9.884;2023-12-04T02:52:19;20.93;;;11.33;;
16878;SDS011;8556;52.218;9.884;2023-12-04T02:54:45;20.60;;;11.10;;
16878;SDS011;8556;52.218;9.884;2023-12-04T02:57:13;20.80;;;8.87;;
16878;SDS011;8556;52.218;9.884;2023-12-04T02:59:40;19.90;;;8.77;;
16878;SDS011;8556;52.218;9.884;2023-12-04T03:02:07;19.90;;;8.87;;
16878;SDS011;8556;52.218;9.884;2023-12-04T03:04:34;18.93;;;10.03;;
16878;SDS011;8556;52.218;9.884;2023-12-04T03:07:01;19.37;;;9.97;;
16878;SDS011;8556;52.218;9.884;2023-12-04T03:09:28;19.57;;;9.80;;
16878;SDS011;8556;52.218;9.884;2023-12-04T03:11:55;18.87;;;9.37;;
16878;SDS011;8556;52.218;9.884;2023-12-04T03:14:23;19.73;;;9.10;;
16878;SDS011;8556;52.218;9.884;2023-12-04T03:16:50;20.43;;;9.83;;
16878;SDS011;8556;52.218;9.884;2023-12-04T03:19:17;18.67;;;8.83;;
16878;SDS011;8556;52.218;9.884;2023-12-04T03:21:43;19.70;;;9.20;;
16878;SDS011;8556;52.218;9.884;2023-12-04T03:24:10;16.80;;;8.27;;
16878;SDS011;8556;52.218;9.884;2023-12-04T03:26:37;20.00;;;9.87;;
16878;SDS011;8556;52.218;9.884;2023-12-04T03:29:04;17.90;;;9.20;;
16878;SDS011;8556;52.218;9.884;2023-12-04T03:31:32;17.80;;;8.23;;
16878;SDS011;8556;52.218;9.884;2023-12-04T03:33:59;17.90;;;8.20;;
16878;SDS011;8556;52.218;9.884;2023-12-04T03:36:26;17.63;;;8.17;;
16878;SDS011;8556;52.218;9.884;2023-12-04T03:38:52;21.30;;;11.40;;
16878;SDS011;8556;52.218;9.884;2023-12-04T03:41:19;18.00;;;8.87;;
16878;SDS011;8556;52.218;9.884;2023-12-04T03:43:47;20.63;;;8.97;;
16878;SDS011;8556;52.218;9.884;2023-12-04T03:46:14;17.57;;;7.90;;
16878;SDS011;8556;52.218;9.884;2023-12-04T03:48:42;17.53;;;8.53;;
16878;SDS011;8556;52.218;9.884;2023-12-04T03:51:09;18.53;;;9.07;;
16878;SDS011;8556;52.218;9.884;2023-12-04T03:53:35;18.00;;;9.43;;
16878;SDS011;8556;52.218;9.884;2023-12-04T03:56:03;19.40;;;8.80;;
16878;SDS011;8556;52.218;9.884;2023-12-04T03:58:30;16.37;;;8.17;;
16878;SDS011;8556;52.218;9.884;2023-12-04T04:00:58;18.60;;;8.93;;
16878;SDS011;8556;52.218;9.884;2023-12-04T04:03:25;17.00;;;8.37;;
16878;SDS011;8556;52.218;9.884;2023-12-04T04:05:53;17.90;;;9.70;;
16878;SDS011;8556;52.218;9.884;2023-12-04T04:08:20;15.27;;;8.70;;
16878;SDS011;8556;52.218;9.884;2023-12-04T04:10:47;18.33;;;8.50;;
16878;SDS011;8556;52.218;9.884;2023-12-04T04:13:14;18.00;;;8.10;;
16878;SDS011;8556;52.218;9.884;2023-12-04T04:15:40;17.73;;;8.70;;
16878;SDS011;8556;52.218;9.884;2023-12-04T04:18:07;18.90;;;8.50;;
16878;SDS011;8556;52.218;9.884;2023-12-04T04:20:34;17.93;;;8.90;;
16878;SDS011;8556;52.218;9.884;2023-12-04T04:23:02;17.27;;;8.63;;
16878;SDS011;8556;52.218;9.884;2023-12-04T04:25:29;17.80;;;8.27;;
16878;SDS011;8556;52.218;9.884;2023-12-04T04:27:56;19.10;;;8.60;;
16878;SDS011;8556;52.218;9.884;2023-12-04T04:30:23;16.20;;;7.93;;
16878;SDS011;8556;52.218;9.884;2023-12-04T04:32:49;15.77;;;7.53;;
16878;SDS011;8556;52.218;9.884;2023-12-04T04:35:16;16.23;;;8.13;;
16878;SDS011;8556;52.218;9.884;2023-12-04T04:37:43;17.63;;;9.40;;
16878;SDS011;8556;52.218;9.884;2023-12-04T04:40:11;18.43;;;8.30;;
16878;SDS011;8556;52.218;9.884;2023-12-04T04:42:38;15.33;;;7.37;;
16878;SDS011;8556;52.218;9.884;2023-12-04T04:45:05;17.37;;;8.47;;
16878;SDS011;8556;52.218;9.884;2023-12-04T04:47:33;16.83;;;8.83;;
16878;SDS011;8556;52.218;9.884;2023-12-04T04:49:59;14.97;;;8.57;;
16878;SDS011;8556;52.218;9.884;2023-12-04T04:52:26;15.17;;;7.70;;
16878;SDS011;8556;52.218;9.884;2023-12-04T04:54:53;16.30;;;7.40;;
16878;SDS011;8556;52.218;9.884;2023-12-04T04:57:21;15.07;;;8.10;;
16878;SDS011;8556;52.218;9.884;2023-12-04T04:59:48;20.37;;;9.27;;
16878;SDS011;8556;52.218;9.884;2023-12-04T05:02:15;25.30;;;7.63;;
16878;SDS011;8556;52.218;9.884;2023-12-04T05:04:41;17.83;;;7.47;;
16878;SDS011;8556;52.218;9.884;2023-12-04T05:07:08;20.43;;;8.03;;
16878;SDS011;8556;52.218;9.884;2023-12-04T05:09:35;15.60;;;8.77;;
16878;SDS011;8556;52.218;9.884;2023-12-04T05:12:02;16.30;;;8.90;;
16878;SDS011;8556;52.218;9.884;2023-12-04T05:14:30;16.73;;;7.87;;
16878;SDS011;8556;52.218;9.884;2023-12-04T05:16:57;16.60;;;7.73;;
16878;SDS011;8556;52.218;9.884;2023-12-04T05:19:24;16.80;;;8.03;;
16878;SDS011;8556;52.218;9.884;2023-12-04T05:21:51;15.03;;;7.77;;
16878;SDS011;8556;52.218;9.884;2023-12-04T05:24:18;16.27;;;7.53;;
16878;SDS011;8556;52.218;9.884;2023-12-04T05:26:44;17.67;;;8.43;;
16878;SDS011;8556;52.218;9.884;2023-12-04T05:29:11;15.63;;;7.30;;
16878;SDS011;8556;52.218;9.884;2023-12-04T05:31:39;16.63;;;8.87;;
16878;SDS011;8556;52.218;9.884;2023-12-04T05:34:06;15.70;;;7.37;;
16878;SDS011;8556;52.218;9.884;2023-12-04T05:36:33;15.73;;;8.43;;
16878;SDS011;8556;52.218;9.884;2023-12-04T05:38:59;16.80;;;7.57;;
16878;SDS011;8556;52.218;9.884;2023-12-04T05:41:26;18.67;;;8.37;;
16878;SDS011;8556;52.218;9.884;2023-12-04T05:43:53;16.03;;;7.43;;
16878;SDS011;8556;52.218;9.884;2023-12-04T05:46:20;15.40;;;8.23;;
16878;SDS011;8556;52.218;9.884;2023-12-04T05:48:48;14.40;;;7.57;;
16878;SDS011;8556;52.218;9.884;2023-12-04T05:51:15;16.50;;;8.17;;
16878;SDS011;8556;52.218;9.884;2023-12-04T05:53:41;15.67;;;8.40;;
16878;SDS011;8556;52.218;9.884;2023-12-04T05:56:09;16.67;;;8.33;;
16878;SDS011;8556;52.218;9.884;2023-12-04T05:58:36;16.83;;;7.83;;
16878;SDS011;8556;52.218;9.884;2023-12-04T06:01:03;15.73;;;8.83;;
16878;SDS011;8556;52.218;9.884;2023-12-04T06:03:31;16.93;;;8.57;;
16878;SDS011;8556;52.218;9.884;2023-12-04T06:05:59;17.43;;;7.80;;
16878;SDS011;8556;52.218;9.884;2023-12-04T06:08:26;18.10;;;8.83;;
16878;SDS011;8556;52.218;9.884;2023-12-04T06:10:52;17.87;;;8.40;;
16878;SDS011;8556;52.218;9.884;2023-12-04T06:13:19;17.30;;;8.20;;
16878;SDS011;8556;52.218;9.884;2023-12-04T06:15:46;15.93;;;7.57;;
16878;SDS011;8556;52.218;9.884;2023-12-04T06:18:13;15.70;;;7.97;;
16878;SDS011;8556;52.218;9.884;2023-12-04T06:20:39;15.83;;;7.33;;
16878;SDS011;8556;52.218;9.884;2023-12-04T06:23:08;18.80;;;9.10;;
16878;SDS011;8556;52.218;9.884;2023-12-04T06:25:35;17.13;;;8.77;;
16878;SDS011;8556;52.218;9.884;2023-12-04T06:28:03;18.03;;;8.77;;
16878;SDS011;8556;52.218;9.884;2023-12-04T06:30:30;19.83;;;9.97;;
16878;SDS011;8556;52.218;9.884;2023-12-04T06:32:58;18.33;;;8.53;;
16878;SDS011;8556;52.218;9.884;2023-12-04T06:35:25;16.87;;;7.63;;
16878;SDS011;8556;52.218;9.884;2023-12-04T06:37:53;17.93;;;8.87;;
16878;SDS011;8556;52.218;9.884;2023-12-04T06:40:22;18.10;;;8.67;;
16878;SDS011;8556;52.218;9.884;2023-12-04T06:42:50;15.93;;;8.77;;
16878;SDS011;8556;52.218;9.884;2023-12-04T06:45:17;16.90;;;7.80;;
16878;SDS011;8556;52.218;9.884;2023-12-04T06:47:44;17.30;;;9.50;;
16878;SDS011;8556;52.218;9.884;2023-12-04T06:50:14;17.03;;;8.33;;
16878;SDS011;8556;52.218;9.884;2023-12-04T06:52:41;15.77;;;9.07;;
16878;SDS011;8556;52.218;9.884;2023-12-04T06:55:08;16.60;;;8.07;;
16878;SDS011;8556;52.218;9.884;2023-12-04T06:57:36;15.10;;;7.83;;
16878;SDS011;8556;52.218;9.884;2023-12-04T07:00:03;16.03;;;8.10;;
16878;SDS011;8556;52.218;9.884;2023-12-04T07:02:32;15.77;;;7.57;;
16878;SDS011;8556;52.218;9.884;2023-12-04T07:04:59;15.37;;;8.07;;
16878;SDS011;8556;52.218;9.884;2023-12-04T07:07:28;17.73;;;8.73;;
16878;SDS011;8556;52.218;9.884;2023-12-04T07:09:54;14.70;;;8.13;;
16878;SDS011;8556;52.218;9.884;2023-12-04T07:12:21;15.17;;;8.30;;
16878;SDS011;8556;52.218;9.884;2023-12-04T07:14:49;15.97;;;9.00;;
16878;SDS011;8556;52.218;9.884;2023-12-04T07:17:16;15.60;;;8.43;;
16878;SDS011;8556;52.218;9.884;2023-12-04T07:19:43;16.30;;;8.00;;
16878;SDS011;8556;52.218;9.884;2023-12-04T07:22:10;16.60;;;8.20;;
16878;SDS011;8556;52.218;9.884;2023-12-04T07:24:37;15.03;;;7.23;;
16878;SDS011;8556;52.218;9.884;2023-12-04T07:27:04;15.97;;;7.97;;
16878;SDS011;8556;52.218;9.884;2023-12-04T07:29:31;17.63;;;10.00;;
16878;SDS011;8556;52.218;9.884;2023-12-04T07:31:59;17.07;;;9.30;;
16878;SDS011;8556;52.218;9.884;2023-12-04T07:34:26;16.67;;;7.73;;
16878;SDS011;8556;52.218;9.884;2023-12-04T07:36:53;16.73;;;7.97;;
16878;SDS011;8556;52.218;9.884;2023-12-04T07:39:20;15.83;;;7.00;;
16878;SDS011;8556;52.218;9.884;2023-12-04T07:41:46;16.17;;;7.07;;
16878;SDS011;8556;52.218;9.884;2023-12-04T07:44:13;16.27;;;7.70;;
16878;SDS011;8556;52.218;9.884;2023-12-04T07:46:40;14.93;;;7.30;;
16878;SDS011;8556;52.218;9.884;2023-12-04T07:49:08;15.63;;;8.70;;
16878;SDS011;8556;52.218;9.884;2023-12-04T07:51:35;15.60;;;7.60;;
16878;SDS011;8556;52.218;9.884;2023-12-04T07:54:02;16.30;;;8.07;;
16878;SDS011;8556;52.218;9.884;2023-12-04T07:56:30;16.60;;;8.83;;
16878;SDS011;8556;52.218;9.884;2023-12-04T07:58:57;13.53;;;7.13;;
16878;SDS011;8556;52.218;9.884;2023-12-04T08:01:23;13.83;;;7.23;;
16878;SDS011;8556;52.218;9.884;2023-12-04T08:03:50;13.77;;;7.43;;
16878;SDS011;8556;52.218;9.884;2023-12-04T08:06:18;17.47;;;8.40;;
16878;SDS011;8556;52.218;9.884;2023-12-04T08:08:45;15.73;;;8.33;;
16878;SDS011;8556;52.218;9.884;2023-12-04T08:11:12;17.80;;;8.83;;
16878;SDS011;8556;52.218;9.884;2023-12-04T08:13:39;19.93;;;10.10;;
16878;SDS011;8556;52.218;9.884;2023-12-04T08:16:12;19.00;;;9.80;;
16878;SDS011;8556;52.218;9.884;2023-12-04T08:18:40;17.73;;;10.27;;
16878;SDS011;8556;52.218;9.884;2023-12-04T08:21:07;18.90;;;9.03;;
16878;SDS011;8556;52.218;9.884;2023-12-04T08:23:35;18.00;;;8.83;;
16878;SDS011;8556;52.218;9.884;2023-12-04T08:26:02;18.03;;;8.87;;
16878;SDS011;8556;52.218;9.884;2023-12-04T08:28:30;15.23;;;8.60;;
16878;SDS011;8556;52.218;9.884;2023-12-04T08:30:57;16.70;;;8.17;;
16878;SDS011;8556;52.218;9.884;2023-12-04T08:33:23;18.77;;;9.00;;
16878;SDS011;8556;52.218;9.884;2023-12-04T08:35:50;17.83;;;10.30;;
16878;SDS011;8556;52.218;9.884;2023-12-04T08:38:17;20.23;;;9.87;;
16878;SDS011;8556;52.218;9.884;2023-12-04T08:40:45;17.00;;;9.00;;
16878;SDS011;8556;52.218;9.884;2023-12-04T08:43:13;20.37;;;10.07;;
16878;SDS011;8556;52.218;9.884;2023-12-04T08:45:39;15.90;;;8.23;;
16878;SDS011;8556;52.218;9.884;2023-12-04T08:48:06;17.07;;;8.13;;
16878;SDS011;8556;52.218;9.884;2023-12-04T08:50:34;17.30;;;8.40;;
16878;SDS011;8556;52.218;9.884;2023-12-04T08:53:01;15.10;;;7.83;;
16878;SDS011;8556;52.218;9.884;2023-12-04T08:55:28;16.63;;;8.40;;
16878;SDS011;8556;52.218;9.884;2023-12-04T08:57:57;17.53;;;9.83;;
16878;SDS011;8556;52.218;9.884;2023-12-04T09:00:23;17.63;;;7.97;;
16878;SDS011;8556;52.218;9.884;2023-12-04T09:02:50;14.70;;;7.50;;
16878;SDS011;8556;52.218;9.884;2023-12-04T09:05:18;17.33;;;7.93;;
16878;SDS011;8556;52.218;9.884;2023-12-04T09:07:44;16.07;;;7.90;;
16878;SDS011;8556;52.218;9.884;2023-12-04T09:10:11;14.80;;;7.63;;
16878;SDS011;8556;52.218;9.884;2023-12-04T09:12:39;15.70;;;8.50;;
16878;SDS011;8556;52.218;9.884;2023-12-04T09:15:08;16.47;;;7.37;;
16878;SDS011;8556;52.218;9.884;2023-12-04T09:17:34;16.87;;;8.10;;
16878;SDS011;8556;52.218;9.884;2023-12-04T09:20:01;16.10;;;7.97;;
16878;SDS011;8556;52.218;9.884;2023-12-04T09:22:30;15.87;;;7.03;;
16878;SDS011;8556;52.218;9.884;2023-12-04T09:24:57;15.47;;;6.77;;
16878;SDS011;8556;52.218;9.884;2023-12-04T09:27:24;14.50;;;6.73;;
16878;SDS011;8556;52.218;9.884;2023-12-04T09:29:51;14.07;;;6.90;;
16878;SDS011;8556;52.218;9.884;2023-12-04T09:32:19;15.80;;;7.80;;
16878;SDS011;8556;52.218;9.884;2023-12-04T09:34:45;15.77;;;8.10;;
16878;SDS011;8556;52.218;9.884;2023-12-04T09:37:12;14.27;;;7.23;;
16878;SDS011;8556;52.218;9.884;2023-12-04T09:39:39;16.83;;;7.87;;
16878;SDS011;8556;52.218;9.884;2023-12-04T09:42:07;17.53;;;8.30;;
16878;SDS011;8556;52.218;9.884;2023-12-04T09:44:34;15.67;;;7.50;;
16878;SDS011;8556;52.218;9.884;2023-12-04T09:47:02;15.47;;;8.20;;
16878;SDS011;8556;52.218;9.884;2023-12-04T09:49:32;15.00;;;5.80;;
16878;SDS011;8556;52.218;9.884;2023-12-04T09:51:59;18.10;;;8.27;;
16878;SDS011;8556;52.218;9.884;2023-12-04T09:54:27;14.63;;;7.70;;
16878;SDS011;8556;52.218;9.884;2023-12-04T09:56:55;16.97;;;9.17;;
16878;SDS011;8556;52.218;9.884;2023-12-04T09:59:23;16.70;;;8.63;;
16878;SDS011;8556;52.218;9.884;2023-12-04T10:01:51;11.53;;;6.43;;
16878;SDS011;8556;52.218;9.884;2023-12-04T10:04:18;15.23;;;7.40;;
16878;SDS011;8556;52.218;9.884;2023-12-04T10:06:47;14.33;;;7.90;;
16878;SDS011;8556;52.218;9.884;2023-12-04T10:09:17;14.53;;;7.00;;
16878;SDS011;8556;52.218;9.884;2023-12-04T10:11:44;15.30;;;7.73;;
16878;SDS011;8556;52.218;9.884;2023-12-04T10:14:14;12.00;;;6.80;;
16878;SDS011;8556;52.218;9.884;2023-12-04T10:16:42;14.77;;;7.40;;
16878;SDS011;8556;52.218;9.884;2023-12-04T10:19:19;14.07;;;7.03;;
16878;SDS011;8556;52.218;9.884;2023-12-04T10:21:48;12.90;;;6.70;;
16878;SDS011;8556;52.218;9.884;2023-12-04T10:24:26;14.77;;;7.37;;
16878;SDS011;8556;52.218;9.884;2023-12-04T10:26:58;16.20;;;7.43;;
16878;SDS011;8556;52.218;9.884;2023-12-04T10:29:26;15.27;;;7.37;;
16878;SDS011;8556;52.218;9.884;2023-12-04T10:31:55;14.40;;;7.07;;
16878;SDS011;8556;52.218;9.884;2023-12-04T10:34:24;13.63;;;6.73;;
16878;SDS011;8556;52.218;9.884;2023-12-04T10:36:53;13.73;;;7.03;;
16878;SDS011;8556;52.218;9.884;2023-12-04T10:39:23;13.77;;;7.77;;
16878;SDS011;8556;52.218;9.884;2023-12-04T10:41:59;14.30;;;7.13;;
16878;SDS011;8556;52.218;9.884;2023-12-04T10:44:27;14.97;;;6.90;;
16878;SDS011;8556;52.218;9.884;2023-12-04T10:46:56;15.17;;;6.83;;
16878;SDS011;8556;52.218;9.884;2023-12-04T10:49:25;16.43;;;6.67;;
16878;SDS011;8556;52.218;9.884;2023-12-04T10:51:55;15.23;;;7.30;;
16878;SDS011;8556;52.218;9.884;2023-12-04T10:54:24;13.20;;;7.20;;
16878;SDS011;8556;52.218;9.884;2023-12-04T10:56:51;12.10;;;6.53;;
16878;SDS011;8556;52.218;9.884;2023-12-04T10:59:21;11.77;;;5.80;;
16878;SDS011;8556;52.218;9.884;2023-12-04T11:01:53;12.07;;;6.50;;
16878;SDS011;8556;52.218;9.884;2023-12-04T11:04:22;13.97;;;6.90;;
16878;SDS011;8556;52.218;9.884;2023-12-04T11:06:52;14.40;;;6.90;;
16878;SDS011;8556;52.218;9.884;2023-12-04T11:09:21;13.23;;;7.47;;
16878;SDS011;8556;52.218;9.884;2023-12-04T11:11:53;14.00;;;7.90;;
16878;SDS011;8556;52.218;9.884;2023-12-04T11:14:25;15.10;;;7.80;;
16878;SDS011;8556;52.218;9.884;2023-12-04T11:16:57;13.43;;;6.83;;
16878;SDS011;8556;52.218;9.884;2023-12-04T11:19:28;14.93;;;6.43;;
16878;SDS011;8556;52.218;9.884;2023-12-04T11:22:03;12.87;;;6.37;;
16878;SDS011;8556;52.218;9.884;2023-12-04T11:24:33;13.07;;;6.33;;
16878;SDS011;8556;52.218;9.884;2023-12-04T11:27:01;13.13;;;7.60;;
16878;SDS011;8556;52.218;9.884;2023-12-04T11:29:29;13.07;;;6.63;;
16878;SDS011;8556;52.218;9.884;2023-12-04T11:31:57;12.17;;;6.67;;
16878;SDS011;8556;52.218;9.884;2023-12-04T11:34:24;14.33;;;7.20;;
16878;SDS011;8556;52.218;9.884;2023-12-04T11:36:51;11.87;;;6.13;;
16878;SDS011;8556;52.218;9.884;2023-12-04T11:39:18;14.47;;;6.70;;
16878;SDS011;8556;52.218;9.884;2023-12-04T11:41:46;13.10;;;6.53;;
16878;SDS011;8556;52.218;9.884;2023-12-04T11:44:14;11.17;;;6.00;;
16878;SDS011;8556;52.218;9.884;2023-12-04T11:46:54;11.17;;;5.73;;
16878;SDS011;8556;52.218;9.884;2023-12-04T11:49:28;12.10;;;6.30;;
16878;SDS011;8556;52.218;9.884;2023-12-04T11:51:56;11.50;;;5.83;;
16878;SDS011;8556;52.218;9.884;2023-12-04T11:54:26;13.23;;;7.07;;
16878;SDS011;8556;52.218;9.884;2023-12-04T11:56:59;13.77;;;7.03;;
16878;SDS011;8556;52.218;9.884;2023-12-04T11:59:26;12.93;;;6.20;;
16878;SDS011;8556;52.218;9.884;2023-12-04T12:01:54;12.40;;;6.50;;
16878;SDS011;8556;52.218;9.884;2023-12-04T12:04:22;14.17;;;7.33;;
16878;SDS011;8556;52.218;9.884;2023-12-04T12:06:49;12.57;;;6.50;;
16878;SDS011;8556;52.218;9.884;2023-12-04T12:09:16;12.07;;;6.30;;
16878;SDS011;8556;52.218;9.884;2023-12-04T12:11:44;11.77;;;6.30;;
16878;SDS011;8556;52.218;9.884;2023-12-04T12:14:12;12.50;;;6.53;;
16878;SDS011;8556;52.218;9.884;2023-12-04T12:16:39;12.50;;;6.60;;
16878;SDS011;8556;52.218;9.884;2023-12-04T12:19:06;12.27;;;5.80;;
16878;SDS011;8556;52.218;9.884;2023-12-04T12:21:33;11.83;;;6.03;;
16878;SDS011;8556;52.218;9.884;2023-12-04T12:24:00;13.77;;;6.60;;
16878;SDS011;8556;52.218;9.884;2023-12-04T12:26:28;10.33;;;5.63;;
16878;SDS011;8556;52.218;9.884;2023-12-04T12:28:55;11.43;;;5.60;;
16878;SDS011;8556;52.218;9.884;2023-12-04T12:31:24;11.87;;;6.10;;
16878;SDS011;8556;52.218;9.884;2023-12-04T12:33:50;10.73;;;5.70;;
16878;SDS011;8556;52.218;9.884;2023-12-04T12:36:18;13.17;;;5.90;;
16878;SDS011;8556;52.218;9.884;2023-12-04T12:38:45;11.60;;;5.73;;
16878;SDS011;8556;52.218;9.884;2023-12-04T12:41:14;10.43;;;5.70;;
16878;SDS011;8556;52.218;9.884;2023-12-04T12:43:41;11.07;;;5.90;;
16878;SDS011;8556;52.218;9.884;2023-12-04T12:46:09;10.03;;;5.80;;
16878;SDS011;8556;52.218;9.884;2023-12-04T12:48:38;12.77;;;6.37;;
16878;SDS011;8556;52.218;9.884;2023-12-04T12:51:05;10.43;;;5.73;;
16878;SDS011;8556;52.218;9.884;2023-12-04T12:53:34;9.70;;;5.53;;
16878;SDS011;8556;52.218;9.884;2023-12-04T12:56:01;11.40;;;5.67;;
16878;SDS011;8556;52.218;9.884;2023-12-04T12:58:28;11.10;;;6.00;;
16878;SDS011;8556;52.218;9.884;2023-12-04T13:00:55;13.27;;;6.47;;
16878;SDS011;8556;52.218;9.884;2023-12-04T13:03:22;11.83;;;6.50;;
16878;SDS011;8556;52.218;9.884;2023-12-04T13:05:50;11.97;;;6.23;;
16878;SDS011;8556;52.218;9.884;2023-12-04T13:08:17;10.80;;;5.53;;
16878;SDS011;8556;52.218;9.884;2023-12-04T13:10:44;9.83;;;5.40;;
16878;SDS011;8556;52.218;9.884;2023-12-04T13:13:11;12.20;;;5.93;;
16878;SDS011;8556;52.218;9.884;2023-12-04T13:15:38;10.70;;;5.63;;
16878;SDS011;8556;52.218;9.884;2023-12-04T13:18:06;12.53;;;6.27;;
16878;SDS011;8556;52.218;9.884;2023-12-04T13:20:33;10.60;;;5.63;;
16878;SDS011;8556;52.218;9.884;2023-12-04T13:23:01;11.10;;;5.67;;
16878;SDS011;8556;52.218;9.884;2023-12-04T13:25:28;11.50;;;6.17;;
16878;SDS011;8556;52.218;9.884;2023-12-04T13:27:55;13.17;;;6.33;;
16878;SDS011;8556;52.218;9.884;2023-12-04T13:30:22;8.40;;;5.17;;
16878;SDS011;8556;52.218;9.884;2023-12-04T13:32:49;8.87;;;5.00;;
16878;SDS011;8556;52.218;9.884;2023-12-04T13:35:16;11.00;;;5.30;;
16878;SDS011;8556;52.218;9.884;2023-12-04T13:37:44;11.50;;;5.50;;
16878;SDS011;8556;52.218;9.884;2023-12-04T13:40:12;9.30;;;5.23;;
16878;SDS011;8556;52.218;9.884;2023-12-04T13:42:41;10.43;;;5.17;;
16878;SDS011;8556;52.218;9.884;2023-12-04T13:45:25;10.10;;;5.43;;
16878;SDS011;8556;52.218;9.884;2023-12-04T13:47:53;8.27;;;4.77;;
16878;SDS011;8556;52.218;9.884;2023-12-04T13:50:20;9.63;;;5.27;;
16878;SDS011;8556;52.218;9.884;2023-12-04T13:52:47;9.47;;;4.87;;
16878;SDS011;8556;52.218;9.884;2023-12-04T13:55:21;10.43;;;5.20;;
16878;SDS011;8556;52.218;9.884;2023-12-04T13:58:01;9.13;;;4.57;;
16878;SDS011;8556;52.218;9.884;2023-12-04T14:00:35;8.80;;;4.83;;
16878;SDS011;8556;52.218;9.884;2023-12-04T14:03:02;8.33;;;4.90;;
16878;SDS011;8556;52.218;9.884;2023-12-04T14:05:30;9.47;;;5.40;;
16878;SDS011;8556;52.218;9.884;2023-12-04T14:07:56;10.37;;;4.90;;
16878;SDS011;8556;52.218;9.884;2023-12-04T14:10:25;9.30;;;5.00;;
16878;SDS011;8556;52.218;9.884;2023-12-04T14:12:52;9.67;;;4.80;;
16878;SDS011;8556;52.218;9.884;2023-12-04T14:15:20;8.27;;;4.73;;
16878;SDS011;8556;52.218;9.884;2023-12-04T14:17:47;9.30;;;4.73;;
16878;SDS011;8556;52.218;9.884;2023-12-04T14:20:14;9.60;;;4.93;;
16878;SDS011;8556;52.218;9.884;2023-12-04T14:22:43;8.57;;;4.90;;
16878;SDS011;8556;52.218;9.884;2023-12-04T14:25:11;9.00;;;4.80;;
16878;SDS011;8556;52.218;9.884;2023-12-04T14:27:40;10.30;;;4.93;;
16878;SDS011;8556;52.218;9.884;2023-12-04T14:30:10;8.00;;;4.50;;
16878;SDS011;8556;52.218;9.884;2023-12-04T14:32:39;9.83;;;4.67;;
16878;SDS011;8556;52.218;9.884;2023-12-04T14:35:06;8.03;;;4.47;;
16878;SDS011;8556;52.218;9.884;2023-12-04T14:37:34;8.03;;;4.67;;
16878;SDS011;8556;52.218;9.884;2023-12-04T14:40:01;8.27;;;4.47;;
16878;SDS011;8556;52.218;9.884;2023-12-04T14:42:29;8.40;;;4.77;;
16878;SDS011;8556;52.218;9.884;2023-12-04T14:44:57;8.67;;;4.40;;
16878;SDS011;8556;52.218;9.884;2023-12-04T14:47:25;8.23;;;4.67;;